sensor_id;sensor_type;location;lat;lon;timestamp;P1;durP1;ratioP1;P2;durP2;ratioP2
59161;SDS011;44942;48.936;8.260;2023-02-11T00:04:22;6.72;;;6.13;;
59161;SDS011;44942;48.936;8.260;2023-02-11T00:09:23;6.82;;;6.13;;
59161;SDS011;44942;48.936;8.260;2023-02-11T00:14:24;7.37;;;6.50;;
59161;SDS011;44942;48.936;8.260;2023-02-11T00:19:24;7.30;;;6.03;;
59161;SDS011;44942;48.936;8.260;2023-02-11T00:24:25;6.63;;;5.93;;
59161;SDS011;44942;48.936;8.260;2023-02-11T00:29:25;7.27;;;6.57;;
59161;SDS011;44942;48.936;8.260;2023-02-11T00:34:26;7.17;;;6.47;;
59161;SDS011;44942;48.936;8.260;2023-02-11T00:39:27;6.87;;;5.97;;
59161;SDS011;44942;48.936;8.260;2023-02-11T00:44:28;7.00;;;6.20;;
59161;SDS011;44942;48.936;8.260;2023-02-11T00:49:28;7.00;;;6.07;;
59161;SDS011;44942;48.936;8.260;2023-02-11T00:54:29;6.80;;;6.10;;
59161;SDS011;44942;48.936;8.260;2023-02-11T00:59:29;7.73;;;6.40;;
59161;SDS011;44942;48.936;8.260;2023-02-11T01:04:30;6.73;;;5.90;;
59161;SDS011;44942;48.936;8.260;2023-02-11T01:09:30;7.27;;;6.20;;
59161;SDS011;44942;48.936;8.260;2023-02-11T01:14:31;6.60;;;5.90;;
59161;SDS011;44942;48.936;8.260;2023-02-11T01:19:31;7.57;;;6.13;;
59161;SDS011;44942;48.936;8.260;2023-02-11T01:24:32;7.30;;;6.33;;
59161;SDS011;44942;48.936;8.260;2023-02-11T01:29:33;6.23;;;5.63;;
59161;SDS011;44942;48.936;8.260;2023-02-11T01:34:33;6.70;;;6.10;;
59161;SDS011;44942;48.936;8.260;2023-02-11T01:39:34;6.90;;;6.30;;
59161;SDS011;44942;48.936;8.260;2023-02-11T01:44:36;7.03;;;6.30;;
59161;SDS011;44942;48.936;8.260;2023-02-11T01:49:40;6.75;;;6.05;;
59161;SDS011;44942;48.936;8.260;2023-02-11T01:54:45;6.78;;;6.07;;
59161;SDS011;44942;48.936;8.260;2023-02-11T02:00:09;8.02;;;6.25;;
59161;SDS011;44942;48.936;8.260;2023-02-11T02:05:25;6.65;;;5.97;;
59161;SDS011;44942;48.936;8.260;2023-02-11T02:10:40;7.47;;;6.22;;
59161;SDS011;44942;48.936;8.260;2023-02-11T02:15:44;8.20;;;6.07;;
59161;SDS011;44942;48.936;8.260;2023-02-11T02:37:15;9.68;;;6.22;;
59161;SDS011;44942;48.936;8.260;2023-02-11T02:42:20;6.45;;;5.85;;
59161;SDS011;44942;48.936;8.260;2023-02-11T02:47:22;7.50;;;6.65;;
59161;SDS011;44942;48.936;8.260;2023-02-11T02:57:37;6.90;;;6.20;;
59161;SDS011;44942;48.936;8.260;2023-02-11T03:08:15;7.20;;;6.35;;
59161;SDS011;44942;48.936;8.260;2023-02-11T03:13:24;7.22;;;6.50;;
59161;SDS011;44942;48.936;8.260;2023-02-11T03:18:28;7.25;;;6.50;;
59161;SDS011;44942;48.936;8.260;2023-02-11T03:23:36;6.40;;;5.55;;
59161;SDS011;44942;48.936;8.260;2023-02-11T03:33:57;6.57;;;5.95;;
59161;SDS011;44942;48.936;8.260;2023-02-11T03:39:06;6.70;;;6.00;;
59161;SDS011;44942;48.936;8.260;2023-02-11T03:44:08;6.68;;;5.97;;
59161;SDS011;44942;48.936;8.260;2023-02-11T03:49:11;6.90;;;6.20;;
59161;SDS011;44942;48.936;8.260;2023-02-11T03:54:15;6.60;;;6.00;;
59161;SDS011;44942;48.936;8.260;2023-02-11T03:59:20;7.28;;;6.55;;
59161;SDS011;44942;48.936;8.260;2023-02-11T04:04:20;6.60;;;5.97;;
59161;SDS011;44942;48.936;8.260;2023-02-11T04:09:21;6.93;;;6.23;;
59161;SDS011;44942;48.936;8.260;2023-02-11T04:14:21;6.40;;;5.70;;
59161;SDS011;44942;48.936;8.260;2023-02-11T04:19:22;6.63;;;5.97;;
59161;SDS011;44942;48.936;8.260;2023-02-11T04:24:22;7.30;;;6.30;;
59161;SDS011;44942;48.936;8.260;2023-02-11T04:29:23;6.28;;;5.68;;
59161;SDS011;44942;48.936;8.260;2023-02-11T04:34:24;6.63;;;5.97;;
59161;SDS011;44942;48.936;8.260;2023-02-11T04:39:24;6.67;;;5.97;;
59161;SDS011;44942;48.936;8.260;2023-02-11T04:44:25;8.67;;;6.30;;
59161;SDS011;44942;48.936;8.260;2023-02-11T04:49:25;6.67;;;6.07;;
59161;SDS011;44942;48.936;8.260;2023-02-11T04:54:26;7.43;;;6.40;;
59161;SDS011;44942;48.936;8.260;2023-02-11T04:59:27;6.77;;;6.00;;
59161;SDS011;44942;48.936;8.260;2023-02-11T05:04:27;6.37;;;5.77;;
59161;SDS011;44942;48.936;8.260;2023-02-11T05:09:28;7.37;;;5.97;;
59161;SDS011;44942;48.936;8.260;2023-02-11T05:14:28;7.30;;;6.60;;
59161;SDS011;44942;48.936;8.260;2023-02-11T05:19:29;7.00;;;6.33;;
59161;SDS011;44942;48.936;8.260;2023-02-11T05:24:31;7.07;;;6.25;;
59161;SDS011;44942;48.936;8.260;2023-02-11T05:29:31;6.63;;;6.03;;
59161;SDS011;44942;48.936;8.260;2023-02-11T05:34:32;7.00;;;6.30;;
59161;SDS011;44942;48.936;8.260;2023-02-11T05:39:33;6.87;;;6.13;;
59161;SDS011;44942;48.936;8.260;2023-02-11T05:44:33;6.23;;;5.63;;
59161;SDS011;44942;48.936;8.260;2023-02-11T05:49:34;7.53;;;5.90;;
59161;SDS011;44942;48.936;8.260;2023-02-11T05:54:34;6.43;;;5.83;;
59161;SDS011;44942;48.936;8.260;2023-02-11T05:59:35;7.07;;;6.37;;
59161;SDS011;44942;48.936;8.260;2023-02-11T06:04:36;6.90;;;6.17;;
59161;SDS011;44942;48.936;8.260;2023-02-11T06:09:37;6.75;;;5.82;;
59161;SDS011;44942;48.936;8.260;2023-02-11T06:14:37;6.70;;;6.10;;
59161;SDS011;44942;48.936;8.260;2023-02-11T06:19:38;7.77;;;6.17;;
59161;SDS011;44942;48.936;8.260;2023-02-11T06:24:39;7.27;;;6.00;;
59161;SDS011;44942;48.936;8.260;2023-02-11T06:29:39;6.40;;;5.80;;
59161;SDS011;44942;48.936;8.260;2023-02-11T06:34:40;6.30;;;5.70;;
59161;SDS011;44942;48.936;8.260;2023-02-11T06:39:42;6.37;;;5.73;;
59161;SDS011;44942;48.936;8.260;2023-02-11T06:44:44;6.68;;;6.03;;
59161;SDS011;44942;48.936;8.260;2023-02-11T06:49:44;6.43;;;5.63;;
59161;SDS011;44942;48.936;8.260;2023-02-11T06:54:45;6.20;;;5.60;;
59161;SDS011;44942;48.936;8.260;2023-02-11T06:59:45;7.03;;;5.50;;
59161;SDS011;44942;48.936;8.260;2023-02-11T07:04:46;6.30;;;5.70;;
59161;SDS011;44942;48.936;8.260;2023-02-11T07:09:46;6.93;;;5.37;;
59161;SDS011;44942;48.936;8.260;2023-02-11T07:14:47;7.77;;;5.90;;
59161;SDS011;44942;48.936;8.260;2023-02-11T07:19:47;28.07;;;25.07;;
59161;SDS011;44942;48.936;8.260;2023-02-11T07:24:48;31.03;;;26.80;;
59161;SDS011;44942;48.936;8.260;2023-02-11T07:29:48;39.60;;;23.37;;
59161;SDS011;44942;48.936;8.260;2023-02-11T07:34:49;27.67;;;21.37;;
59161;SDS011;44942;48.936;8.260;2023-02-11T07:39:50;21.97;;;19.57;;
59161;SDS011;44942;48.936;8.260;2023-02-11T07:44:50;23.80;;;19.73;;
59161;SDS011;44942;48.936;8.260;2023-02-11T07:49:51;20.77;;;18.30;;
59161;SDS011;44942;48.936;8.260;2023-02-11T07:54:52;19.58;;;16.75;;
59161;SDS011;44942;48.936;8.260;2023-02-11T07:59:52;18.50;;;15.30;;
59161;SDS011;44942;48.936;8.260;2023-02-11T08:04:53;17.53;;;15.00;;
59161;SDS011;44942;48.936;8.260;2023-02-11T08:09:53;17.07;;;13.43;;
59161;SDS011;44942;48.936;8.260;2023-02-11T08:14:54;15.35;;;12.60;;
59161;SDS011;44942;48.936;8.260;2023-02-11T08:19:55;16.70;;;11.63;;
59161;SDS011;44942;48.936;8.260;2023-02-11T08:24:55;13.77;;;10.77;;
59161;SDS011;44942;48.936;8.260;2023-02-11T08:34:58;9.82;;;8.65;;
59161;SDS011;44942;48.936;8.260;2023-02-11T08:39:59;30.30;;;8.73;;
59161;SDS011;44942;48.936;8.260;2023-02-11T08:45:00;12.80;;;8.50;;
59161;SDS011;44942;48.936;8.260;2023-02-11T08:50:00;12.23;;;8.17;;
59161;SDS011;44942;48.936;8.260;2023-02-11T08:55:01;9.27;;;8.00;;
59161;SDS011;44942;48.936;8.260;2023-02-11T09:00:02;7.67;;;6.83;;
59161;SDS011;44942;48.936;8.260;2023-02-11T09:05:03;8.15;;;6.95;;
59161;SDS011;44942;48.936;8.260;2023-02-11T09:10:04;8.43;;;6.88;;
59161;SDS011;44942;48.936;8.260;2023-02-11T09:15:05;9.57;;;6.80;;
59161;SDS011;44942;48.936;8.260;2023-02-11T09:20:06;8.30;;;6.00;;
59161;SDS011;44942;48.936;8.260;2023-02-11T09:25:07;6.57;;;5.85;;
59161;SDS011;44942;48.936;8.260;2023-02-11T09:30:08;7.43;;;5.70;;
59161;SDS011;44942;48.936;8.260;2023-02-11T09:35:09;18.35;;;6.47;;
59161;SDS011;44942;48.936;8.260;2023-02-11T09:40:10;8.93;;;6.27;;
59161;SDS011;44942;48.936;8.260;2023-02-11T09:45:18;8.57;;;5.65;;
59161;SDS011;44942;48.936;8.260;2023-02-11T09:50:23;43.42;;;6.35;;
59161;SDS011;44942;48.936;8.260;2023-02-11T11:46:34;23.60;;;5.03;;
59161;SDS011;44942;48.936;8.260;2023-02-11T11:51:44;27.20;;;5.40;;
59161;SDS011;44942;48.936;8.260;2023-02-11T11:56:56;20.87;;;5.60;;
59161;SDS011;44942;48.936;8.260;2023-02-11T12:02:10;15.52;;;5.22;;
59161;SDS011;44942;48.936;8.260;2023-02-11T12:07:43;11.93;;;5.15;;
59161;SDS011;44942;48.936;8.260;2023-02-11T12:34:01;11.05;;;4.22;;
59161;SDS011;44942;48.936;8.260;2023-02-11T12:39:31;10.27;;;3.90;;
59161;SDS011;44942;48.936;8.260;2023-02-11T12:49:45;6.85;;;3.80;;
59161;SDS011;44942;48.936;8.260;2023-02-11T13:00:34;8.20;;;3.42;;
59161;SDS011;44942;48.936;8.260;2023-02-11T13:05:49;7.88;;;3.70;;
59161;SDS011;44942;48.936;8.260;2023-02-11T13:10:54;6.35;;;3.63;;
59161;SDS011;44942;48.936;8.260;2023-02-11T13:16:04;26.27;;;17.85;;
59161;SDS011;44942;48.936;8.260;2023-02-11T13:26:38;17.42;;;12.52;;
59161;SDS011;44942;48.936;8.260;2023-02-11T13:31:53;12.90;;;9.38;;
59161;SDS011;44942;48.936;8.260;2023-02-11T13:36:55;12.43;;;7.90;;
59161;SDS011;44942;48.936;8.260;2023-02-11T13:42:01;11.73;;;7.60;;
59161;SDS011;44942;48.936;8.260;2023-02-11T13:47:03;18.30;;;6.65;;
59161;SDS011;44942;48.936;8.260;2023-02-11T13:52:14;10.82;;;6.22;;
59161;SDS011;44942;48.936;8.260;2023-02-11T14:02:31;8.73;;;5.43;;
59161;SDS011;44942;48.936;8.260;2023-02-11T14:23:44;7.00;;;4.43;;
59161;SDS011;44942;48.936;8.260;2023-02-11T14:28:53;9.25;;;4.60;;
59161;SDS011;44942;48.936;8.260;2023-02-11T14:44:47;4.80;;;4.20;;
59161;SDS011;44942;48.936;8.260;2023-02-11T14:49:49;5.53;;;3.92;;
59161;SDS011;44942;48.936;8.260;2023-02-11T14:54:50;5.90;;;3.97;;
59161;SDS011;44942;48.936;8.260;2023-02-11T14:59:57;4.40;;;3.65;;
59161;SDS011;44942;48.936;8.260;2023-02-11T15:10:25;5.70;;;4.03;;
59161;SDS011;44942;48.936;8.260;2023-02-11T15:15:33;7.43;;;4.28;;
59161;SDS011;44942;48.936;8.260;2023-02-11T15:20:39;7.30;;;3.80;;
59161;SDS011;44942;48.936;8.260;2023-02-11T15:25:43;9.23;;;4.50;;
59161;SDS011;44942;48.936;8.260;2023-02-11T15:30:55;13.52;;;4.82;;
59161;SDS011;44942;48.936;8.260;2023-02-11T15:36:04;14.20;;;5.22;;
59161;SDS011;44942;48.936;8.260;2023-02-11T15:41:05;14.10;;;5.07;;
59161;SDS011;44942;48.936;8.260;2023-02-11T15:46:07;12.23;;;5.28;;
59161;SDS011;44942;48.936;8.260;2023-02-11T15:51:18;10.80;;;5.13;;
59161;SDS011;44942;48.936;8.260;2023-02-11T16:01:32;13.55;;;5.53;;
59161;SDS011;44942;48.936;8.260;2023-02-11T16:11:52;12.73;;;4.95;;
59161;SDS011;44942;48.936;8.260;2023-02-11T16:22:33;11.57;;;5.20;;
59161;SDS011;44942;48.936;8.260;2023-02-11T16:27:38;12.05;;;5.20;;
59161;SDS011;44942;48.936;8.260;2023-02-11T16:32:40;11.07;;;5.50;;
59161;SDS011;44942;48.936;8.260;2023-02-11T16:37:40;11.20;;;4.63;;
59161;SDS011;44942;48.936;8.260;2023-02-11T16:42:41;9.90;;;4.97;;
59161;SDS011;44942;48.936;8.260;2023-02-11T16:47:41;15.83;;;7.50;;
59161;SDS011;44942;48.936;8.260;2023-02-11T16:52:42;16.38;;;9.63;;
59161;SDS011;44942;48.936;8.260;2023-02-11T16:57:45;16.45;;;11.50;;
59161;SDS011;44942;48.936;8.260;2023-02-11T17:02:45;20.00;;;11.50;;
59161;SDS011;44942;48.936;8.260;2023-02-11T17:07:46;17.43;;;10.93;;
59161;SDS011;44942;48.936;8.260;2023-02-11T17:12:47;18.90;;;11.53;;
59161;SDS011;44942;48.936;8.260;2023-02-11T17:17:49;16.83;;;10.95;;
59161;SDS011;44942;48.936;8.260;2023-02-11T17:22:49;16.70;;;10.67;;
59161;SDS011;44942;48.936;8.260;2023-02-11T17:27:50;12.88;;;9.20;;
59161;SDS011;44942;48.936;8.260;2023-02-11T17:32:51;15.17;;;8.67;;
59161;SDS011;44942;48.936;8.260;2023-02-11T17:37:51;11.80;;;8.50;;
59161;SDS011;44942;48.936;8.260;2023-02-11T17:42:52;13.68;;;8.27;;
59161;SDS011;44942;48.936;8.260;2023-02-11T17:47:56;11.73;;;7.95;;
59161;SDS011;44942;48.936;8.260;2023-02-11T17:52:56;14.07;;;8.30;;
59161;SDS011;44942;48.936;8.260;2023-02-11T17:57:57;10.70;;;7.90;;
59161;SDS011;44942;48.936;8.260;2023-02-11T18:02:58;11.77;;;7.50;;
59161;SDS011;44942;48.936;8.260;2023-02-11T18:08:03;10.18;;;7.63;;
59161;SDS011;44942;48.936;8.260;2023-02-11T18:13:04;10.57;;;7.40;;
59161;SDS011;44942;48.936;8.260;2023-02-11T18:18:05;10.23;;;7.20;;
59161;SDS011;44942;48.936;8.260;2023-02-11T18:23:05;11.17;;;7.90;;
59161;SDS011;44942;48.936;8.260;2023-02-11T18:28:06;10.97;;;6.77;;
59161;SDS011;44942;48.936;8.260;2023-02-11T18:33:07;11.10;;;7.05;;
59161;SDS011;44942;48.936;8.260;2023-02-11T18:38:11;11.43;;;7.03;;
59161;SDS011;44942;48.936;8.260;2023-02-11T18:43:14;9.37;;;6.47;;
59161;SDS011;44942;48.936;8.260;2023-02-11T18:48:16;9.18;;;6.30;;
59161;SDS011;44942;48.936;8.260;2023-02-11T18:53:17;8.15;;;6.05;;
59161;SDS011;44942;48.936;8.260;2023-02-11T18:58:18;8.63;;;6.17;;
59161;SDS011;44942;48.936;8.260;2023-02-11T19:03:20;10.52;;;6.65;;
59161;SDS011;44942;48.936;8.260;2023-02-11T19:08:21;9.02;;;6.38;;
59161;SDS011;44942;48.936;8.260;2023-02-11T19:13:21;8.17;;;6.00;;
59161;SDS011;44942;48.936;8.260;2023-02-11T19:18:22;11.13;;;6.70;;
59161;SDS011;44942;48.936;8.260;2023-02-11T19:23:23;9.93;;;6.05;;
59161;SDS011;44942;48.936;8.260;2023-02-11T19:28:23;7.70;;;5.80;;
59161;SDS011;44942;48.936;8.260;2023-02-11T19:33:24;12.53;;;6.17;;
59161;SDS011;44942;48.936;8.260;2023-02-11T19:38:24;6.93;;;5.83;;
59161;SDS011;44942;48.936;8.260;2023-02-11T19:43:26;8.65;;;5.40;;
59161;SDS011;44942;48.936;8.260;2023-02-11T19:48:27;7.60;;;5.85;;
59161;SDS011;44942;48.936;8.260;2023-02-11T19:53:27;7.78;;;5.85;;
59161;SDS011;44942;48.936;8.260;2023-02-11T19:58:28;7.60;;;5.73;;
59161;SDS011;44942;48.936;8.260;2023-02-11T20:03:29;9.23;;;5.27;;
59161;SDS011;44942;48.936;8.260;2023-02-11T20:08:29;7.80;;;5.70;;
59161;SDS011;44942;48.936;8.260;2023-02-11T20:13:30;9.20;;;5.88;;
59161;SDS011;44942;48.936;8.260;2023-02-11T20:18:33;9.40;;;5.47;;
59161;SDS011;44942;48.936;8.260;2023-02-11T20:23:35;7.75;;;5.45;;
59161;SDS011;44942;48.936;8.260;2023-02-11T20:28:37;7.00;;;5.55;;
59161;SDS011;44942;48.936;8.260;2023-02-11T20:33:38;7.77;;;5.73;;
59161;SDS011;44942;48.936;8.260;2023-02-11T20:43:40;7.23;;;5.20;;
59161;SDS011;44942;48.936;8.260;2023-02-11T20:48:44;20.02;;;13.55;;
59161;SDS011;44942;48.936;8.260;2023-02-11T20:53:46;47.58;;;37.85;;
59161;SDS011;44942;48.936;8.260;2023-02-11T20:58:48;26.75;;;21.65;;
59161;SDS011;44942;48.936;8.260;2023-02-11T21:03:51;18.65;;;14.15;;
59161;SDS011;44942;48.936;8.260;2023-02-11T21:08:52;15.45;;;12.10;;
59161;SDS011;44942;48.936;8.260;2023-02-11T21:13:53;15.07;;;10.93;;
59161;SDS011;44942;48.936;8.260;2023-02-11T21:18:54;13.70;;;10.63;;
59161;SDS011;44942;48.936;8.260;2023-02-11T21:23:54;13.18;;;10.45;;
59161;SDS011;44942;48.936;8.260;2023-02-11T21:28:55;15.45;;;9.77;;
59161;SDS011;44942;48.936;8.260;2023-02-11T21:33:56;11.80;;;9.27;;
59161;SDS011;44942;48.936;8.260;2023-02-11T21:38:58;10.73;;;8.82;;
59161;SDS011;44942;48.936;8.260;2023-02-11T21:44:00;10.25;;;8.85;;
59161;SDS011;44942;48.936;8.260;2023-02-11T21:49:01;14.50;;;8.77;;
59161;SDS011;44942;48.936;8.260;2023-02-11T21:54:01;11.30;;;9.37;;
59161;SDS011;44942;48.936;8.260;2023-02-11T21:59:02;9.27;;;8.27;;
59161;SDS011;44942;48.936;8.260;2023-02-11T22:04:03;9.80;;;7.90;;
59161;SDS011;44942;48.936;8.260;2023-02-11T22:09:04;10.40;;;8.40;;
59161;SDS011;44942;48.936;8.260;2023-02-11T22:14:07;8.32;;;7.30;;
59161;SDS011;44942;48.936;8.260;2023-02-11T22:19:08;9.87;;;8.03;;
59161;SDS011;44942;48.936;8.260;2023-02-11T22:24:08;9.30;;;7.43;;
59161;SDS011;44942;48.936;8.260;2023-02-11T22:29:09;9.00;;;7.70;;
59161;SDS011;44942;48.936;8.260;2023-02-11T22:34:11;9.27;;;7.25;;
59161;SDS011;44942;48.936;8.260;2023-02-11T22:39:12;8.53;;;7.47;;
59161;SDS011;44942;48.936;8.260;2023-02-11T22:44:25;8.90;;;7.47;;
59161;SDS011;44942;48.936;8.260;2023-02-11T22:49:25;11.00;;;6.85;;
59161;SDS011;44942;48.936;8.260;2023-02-11T22:54:27;8.43;;;7.55;;
59161;SDS011;44942;48.936;8.260;2023-02-11T22:59:28;8.40;;;7.10;;
59161;SDS011;44942;48.936;8.260;2023-02-11T23:04:29;8.23;;;7.13;;
59161;SDS011;44942;48.936;8.260;2023-02-11T23:09:29;8.23;;;7.27;;
59161;SDS011;44942;48.936;8.260;2023-02-11T23:14:30;8.20;;;7.13;;
59161;SDS011;44942;48.936;8.260;2023-02-11T23:19:30;7.43;;;6.73;;
59161;SDS011;44942;48.936;8.260;2023-02-11T23:24:31;9.03;;;7.00;;
59161;SDS011;44942;48.936;8.260;2023-02-11T23:29:32;8.27;;;7.10;;
59161;SDS011;44942;48.936;8.260;2023-02-11T23:34:32;7.90;;;7.10;;
59161;SDS011;44942;48.936;8.260;2023-02-11T23:39:33;8.10;;;6.93;;
59161;SDS011;44942;48.936;8.260;2023-02-11T23:44:33;9.53;;;7.17;;
59161;SDS011;44942;48.936;8.260;2023-02-11T23:49:34;8.10;;;6.93;;
59161;SDS011;44942;48.936;8.260;2023-02-11T23:54:35;8.17;;;6.83;;
59161;SDS011;44942;48.936;8.260;2023-02-11T23:59:35;10.43;;;7.07;;
